CMA CGM Fortuna — A8OF7 — position and weather

sailwx.info

Track history (hours):
 
Tides and Currents Weather Stations Pressure Air Temp Water Temp Dewpoint Dewpoint Depression Visibility Wind Speed Wind Dir Waves Ship Positions

CMA CGM Fortuna

Last reported at 2018-Feb-16 08:23 UTC. Time now 2018-Feb-22 20:21 UTC.
Position N 32°17' W 117°31'.

Length 204 m; beam 28 m; draft 9.5 m.

Type: Cargo ship. MMSI: 636017731.

Date/timePositionNaut miles runAvg speedWind from/ knotsBaromVisibWave heightAir tempDewpointWater temp
2018-Feb-16 08:23N 32°17' W 117°31'1113.6
2018-Feb-16 07:36N 32°27' W 117°35'112.0
2018-Feb-16 07:30N 32°29' W 117°35'613.0
2018-Feb-16 07:00N 32°35' W 117°38'714.8
2018-Feb-16 06:30N 32°40' W 117°43'815.4
2018-Feb-16 06:00N 32°45' W 117°50'815.3
2018-Feb-16 05:30N 32°50' W 117°57'815.3
2018-Feb-16 05:00N 32°55' W 118°04'815.6
2018-Feb-16 04:30N 33°01' W 118°11'815.6
2018-Feb-16 04:00N 33°05' W 118°18'815.5
2018-Feb-16 03:30N 33°11' W 118°25'815.6
2018-Feb-16 03:00N 33°16' W 118°32'815.4
2018-Feb-16 02:30N 33°21' W 118°38'815.3
2018-Feb-16 02:00N 33°27' W 118°44'815.6
2018-Feb-16 01:30N 33°34' W 118°50'815.6
2018-Feb-16 01:00N 33°40' W 118°55'815.8
2018-Feb-16 00:30N 33°46' W 119°01'815.9
2018-Feb-16 00:00N 33°52' W 119°07'815.6
2018-Feb-15 23:30N 33°59' W 119°13'714.4
2018-Feb-15 23:00N 34°06' W 119°15'4 7.4
2018-Feb-15 22:30N 34°09' W 119°12'0 0.0
2018-Feb-15 16:34N 34°09' W 119°12'0 0.0
2018-Feb-15 16:22N 34°09' W 119°12'0 0.0
2018-Feb-15 12:59N 34°09' W 119°12'0 0.0
2018-Feb-15 10:22N 34°09' W 119°12'0 0.0
2018-Feb-15 08:54N 34°09' W 119°12'0 0.0
2018-Feb-15 08:12N 34°09' W 119°12'0 0.0
2018-Feb-15 06:08N 34°09' W 119°12'0 0.0
2018-Feb-15 00:06N 34°09' W 119°12'0 0.0
2018-Feb-14 20:40N 34°09' W 119°12'0 0.0
2018-Feb-14 20:25N 34°09' W 119°12'0 0.0
2018-Feb-14 19:55N 34°09' W 119°12'0 0.0
2018-Feb-14 17:30N 34°09' W 119°12'0 0.0
2018-Feb-14 14:26N 34°09' W 119°12'1 1.6
2018-Feb-14 14:00N 34°08' W 119°13'3 6.1
2018-Feb-14 13:30N 34°06' W 119°15'713.3
2018-Feb-14 13:00N 33°59' W 119°14'817.3
2018-Feb-14 12:31N 33°53' W 119°07'917.1
2018-Feb-14 12:01N 33°46' W 119°01'1017.0
2018-Feb-14 11:24N 33°38' W 118°54'5517.1
2018-Feb-14 08:12N 32°58' W 118°08'317.1
2018-Feb-14 08:00N 32°56' W 118°05'1017.2
2018-Feb-14 07:26N 32°49' W 117°56'817.3
2018-Feb-14 06:58N 32°44' W 117°49'1017.3
2018-Feb-14 06:23N 32°38' W 117°40'617.0
2018-Feb-14 06:01N 32°32' W 117°37'917.1
2018-Feb-14 05:30N 32°24' W 117°33'  
Track history (hours):
 
Tides and Currents Weather Stations Pressure Air Temp Water Temp Dewpoint Dewpoint Depression Visibility Wind Speed Wind Dir Waves Ship Positions

CMA CGM Fortuna

Last reported at 2018-Feb-16 08:23 UTC. Time now 2018-Feb-22 20:21 UTC.
Position N 32°17' W 117°31'.

Length 204 m; beam 28 m; draft 9.5 m.

Type: Cargo ship. MMSI: 636017731.

Date/timePositionNaut miles runAvg speedWind from/ knotsBaromVisibWave heightAir tempDewpointWater temp
2018-Feb-16 08:23N 32°17' W 117°31'1113.6
2018-Feb-16 07:36N 32°27' W 117°35'112.0
2018-Feb-16 07:30N 32°29' W 117°35'613.0
2018-Feb-16 07:00N 32°35' W 117°38'714.8
2018-Feb-16 06:30N 32°40' W 117°43'815.4
2018-Feb-16 06:00N 32°45' W 117°50'815.3
2018-Feb-16 05:30N 32°50' W 117°57'815.3
2018-Feb-16 05:00N 32°55' W 118°04'815.6
2018-Feb-16 04:30N 33°01' W 118°11'815.6
2018-Feb-16 04:00N 33°05' W 118°18'815.5
2018-Feb-16 03:30N 33°11' W 118°25'815.6
2018-Feb-16 03:00N 33°16' W 118°32'815.4
2018-Feb-16 02:30N 33°21' W 118°38'815.3
2018-Feb-16 02:00N 33°27' W 118°44'815.6
2018-Feb-16 01:30N 33°34' W 118°50'815.6
2018-Feb-16 01:00N 33°40' W 118°55'815.8
2018-Feb-16 00:30N 33°46' W 119°01'815.9
2018-Feb-16 00:00N 33°52' W 119°07'815.6
2018-Feb-15 23:30N 33°59' W 119°13'714.4
2018-Feb-15 23:00N 34°06' W 119°15'4 7.4
2018-Feb-15 22:30N 34°09' W 119°12'0 0.0
2018-Feb-15 16:34N 34°09' W 119°12'0 0.0
2018-Feb-15 16:22N 34°09' W 119°12'0 0.0
2018-Feb-15 12:59N 34°09' W 119°12'0 0.0
2018-Feb-15 10:22N 34°09' W 119°12'0 0.0
2018-Feb-15 08:54N 34°09' W 119°12'0 0.0
2018-Feb-15 08:12N 34°09' W 119°12'0 0.0
2018-Feb-15 06:08N 34°09' W 119°12'0 0.0
2018-Feb-15 00:06N 34°09' W 119°12'0 0.0
2018-Feb-14 20:40N 34°09' W 119°12'0 0.0
2018-Feb-14 20:25N 34°09' W 119°12'0 0.0
2018-Feb-14 19:55N 34°09' W 119°12'0 0.0
2018-Feb-14 17:30N 34°09' W 119°12'0 0.0
2018-Feb-14 14:26N 34°09' W 119°12'1 1.6
2018-Feb-14 14:00N 34°08' W 119°13'3 6.1
2018-Feb-14 13:30N 34°06' W 119°15'713.3
2018-Feb-14 13:00N 33°59' W 119°14'817.3
2018-Feb-14 12:31N 33°53' W 119°07'917.1
2018-Feb-14 12:01N 33°46' W 119°01'1017.0
2018-Feb-14 11:24N 33°38' W 118°54'5517.1
2018-Feb-14 08:12N 32°58' W 118°08'317.1
2018-Feb-14 08:00N 32°56' W 118°05'1017.2
2018-Feb-14 07:26N 32°49' W 117°56'817.3
2018-Feb-14 06:58N 32°44' W 117°49'1017.3
2018-Feb-14 06:23N 32°38' W 117°40'617.0
2018-Feb-14 06:01N 32°32' W 117°37'917.1
2018-Feb-14 05:30N 32°24' W 117°33'  

Dump ship's entire track history